Time;durP1;ratioP1;P1;durP2;ratioP2;P2;SDS_P1;SDS_P2;PMS_P1;PMS_P2;Temp;Humidity;BMP_temperature;BMP_pressure;BME280_temperature;BME280_humidity;BME280_pressure;Samples;Min_cycle;Max_cycle;Signal;HPM_P1;HPM_P2
2021/12/26 00:01:05;;;;;;;26.50;16.75;;;;;;;-0.57;99.19;99337.59;6182118;23;20020;-84
2021/12/26 00:03:35;;;;;;;25.45;15.57;;;;;;;-0.63;98.87;99341.03;6156301;23;20055;-84
2021/12/26 00:06:12;;;;;;;24.90;15.10;;;;;;;-0.66;99.17;99331.69;6182178;23;20469;-84
2021/12/26 00:08:38;;;;;;;26.05;16.05;;;;;;;-0.65;99.13;99346.88;6182970;23;20502;-84
2021/12/26 00:11:05;;;;;;;24.33;14.20;;;;;;;-0.73;98.77;99328.13;6155935;23;20005;-84
2021/12/26 00:13:33;;;;;;;29.90;17.35;;;;;;;-0.72;99.05;99343.28;6181959;23;20017;-84
2021/12/26 00:16:03;;;;;;;29.60;16.50;;;;;;;-0.74;99.10;99346.41;6182163;23;20124;-84
2021/12/26 00:18:30;;;;;;;26.45;15.85;;;;;;;-0.77;99.05;99346.38;6182888;23;20013;-85
2021/12/26 00:20:56;;;;;;;25.48;16.15;;;;;;;-0.76;99.44;99354.16;6182509;23;20431;-88
2021/12/26 00:23:21;;;;;;;29.52;16.73;;;;;;;-0.83;99.80;99347.88;6182846;23;20068;-89
2021/12/26 00:25:48;;;;;;;27.65;16.75;;;;;;;-0.84;100.00;99351.75;6182779;23;20438;-86
2021/12/26 00:28:14;;;;;;;26.73;17.05;;;;;;;-0.87;100.00;99363.41;6156629;23;20020;-87
2021/12/26 00:30:42;;;;;;;29.13;16.38;;;;;;;-0.91;100.00;99351.72;6180675;23;20088;-87
2021/12/26 00:33:07;;;;;;;28.80;16.92;;;;;;;-0.85;100.00;99361.09;6181980;23;20647;-87
2021/12/26 00:35:33;;;;;;;27.58;15.52;;;;;;;-0.91;100.00;99357.94;6182478;23;20173;-88
2021/12/26 00:37:58;;;;;;;26.52;15.82;;;;;;;-0.98;100.00;99341.56;6155017;23;20033;-88
2021/12/26 00:40:29;;;;;;;31.15;18.25;;;;;;;-0.87;100.00;99355.25;6155682;23;20017;-83
2021/12/26 00:42:56;;;;;;;28.85;17.55;;;;;;;-0.90;100.00;99354.06;6156326;23;20021;-88
2021/12/26 00:45:22;;;;;;;27.83;18.08;;;;;;;-0.96;100.00;99350.13;6154941;23;20034;-88
2021/12/26 00:47:48;;;;;;;29.25;17.45;;;;;;;-0.95;100.00;99357.91;6181105;23;20148;-88
2021/12/26 00:50:16;;;;;;;29.30;17.75;;;;;;;-0.94;100.00;99364.16;6155927;23;20017;-88
2021/12/26 00:52:43;;;;;;;28.00;17.10;;;;;;;-0.98;100.00;99364.13;6182833;23;20491;-87
2021/12/26 00:55:11;;;;;;;28.30;15.52;;;;;;;-1.02;100.00;99362.53;6182259;23;20013;-91
2021/12/26 00:57:37;;;;;;;27.83;17.08;;;;;;;-1.03;100.00;99378.06;6156110;23;20013;-89
2021/12/26 01:00:06;;;;;;;29.33;16.98;;;;;;;-1.06;100.00;99367.94;6184097;23;20044;-88
2021/12/26 01:02:33;;;;;;;30.98;17.88;;;;;;;-1.09;100.00;99355.06;6157848;23;20017;-88
2021/12/26 01:04:58;;;;;;;27.60;15.73;;;;;;;-1.04;100.00;99362.88;6184094;23;20132;-89
2021/12/26 01:07:37;;;;;;;27.63;17.05;;;;;;;-1.08;100.00;99362.06;6183518;23;20049;-88
2021/12/26 01:10:05;;;;;;;29.83;18.02;;;;;;;-1.15;100.00;99356.56;6184456;23;20023;-89
2021/12/26 01:12:31;;;;;;;32.65;18.88;;;;;;;-1.10;100.00;99361.69;6156903;23;20451;-88
2021/12/26 01:15:06;;;;;;;30.48;17.48;;;;;;;-1.08;100.00;99370.25;6157621;23;20021;-89
2021/12/26 01:17:45;;;;;;;28.30;17.42;;;;;;;-1.11;100.00;99367.47;6184083;23;20077;-89
2021/12/26 01:20:38;;;;;;;30.50;18.77;;;;;;;-1.15;100.00;99367.47;6182520;23;20017;-89
2021/12/26 01:23:05;;;;;;;33.33;18.70;;;;;;;-1.09;100.00;99376.06;6156928;23;20020;-89
2021/12/26 01:25:31;;;;;;;30.30;18.02;;;;;;;-1.08;100.00;99372.16;6157124;23;20013;-90
2021/12/26 01:27:56;;;;;;;29.45;17.80;;;;;;;-1.11;100.00;99365.53;6182082;23;20032;-89
2021/12/26 01:30:25;;;;;;;31.30;19.17;;;;;;;-1.03;100.00;99383.50;6157230;23;20525;-89
2021/12/26 01:32:54;;;;;;;32.60;18.00;;;;;;;-1.09;100.00;99385.00;6156720;23;20009;-89
2021/12/26 01:35:28;;;;;;;30.77;19.05;;;;;;;-1.19;100.00;99385.69;6157690;23;20324;-84
2021/12/26 01:38:13;;;;;;;31.85;18.80;;;;;;;-1.15;100.00;99391.16;6157264;23;20009;-84
2021/12/26 01:41:10;;;;;;;29.95;18.00;;;;;;;-1.20;100.00;99383.34;6157813;23;20452;-84
2021/12/26 01:43:58;;;;;;;32.13;18.48;;;;;;;-1.27;100.00;99386.78;6183739;23;20024;-84
2021/12/26 01:46:43;;;;;;;33.00;18.58;;;;;;;-1.28;100.00;99387.91;6157565;23;20009;-82
2021/12/26 01:49:18;;;;;;;32.92;18.48;;;;;;;-1.32;100.00;99378.16;6157315;23;20013;-84
2021/12/26 01:51:47;;;;;;;33.50;19.23;;;;;;;-1.32;100.00;99387.09;6158051;23;20020;-84
2021/12/26 01:54:16;;;;;;;34.85;20.08;;;;;;;-1.30;100.00;99387.53;6157359;23;20399;-84
2021/12/26 01:56:43;;;;;;;33.92;19.00;;;;;;;-1.29;100.00;99391.03;6157915;23;20055;-83
2021/12/26 01:59:10;;;;;;;31.75;17.85;;;;;;;-1.31;100.00;99388.69;6157365;23;20009;-84
2021/12/26 02:04:05;;;;;;;32.03;19.37;;;;;;;-1.22;100.00;99391.09;6177958;23;20017;-79
2021/12/26 02:06:32;;;;;;;32.53;18.30;;;;;;;-1.22;100.00;99385.66;6183757;23;20396;-79
2021/12/26 02:08:57;;;;;;;34.78;20.08;;;;;;;-1.30;100.00;99379.38;6183828;23;20510;-79
2021/12/26 02:11:23;;;;;;;32.58;19.73;;;;;;;-1.28;100.00;99398.03;6157485;23;20009;-79
2021/12/26 02:13:49;;;;;;;30.17;17.98;;;;;;;-1.31;100.00;99385.16;6183762;23;20510;-80
2021/12/26 02:16:15;;;;;;;36.53;20.00;;;;;;;-1.36;100.00;99375.41;6182130;23;20054;-79
2021/12/26 02:18:41;;;;;;;31.85;18.48;;;;;;;-1.31;100.00;99387.88;6157224;23;20019;-77
2021/12/26 02:21:22;;;;;;;33.22;18.25;;;;;;;-1.35;100.00;99382.41;6157256;23;20081;-77
2021/12/26 02:24:06;;;;;;;32.13;18.67;;;;;;;-1.32;100.00;99384.38;6157375;23;20023;-77
2021/12/26 02:29:15;;;;;;;32.25;19.67;;;;;;;-1.44;100.00;99373.75;6182175;23;20009;-79
2021/12/26 02:31:41;;;;;;;32.92;19.00;;;;;;;-1.44;100.00;99384.66;6157497;23;20024;-77
2021/12/26 02:34:07;;;;;;;32.75;18.85;;;;;;;-1.50;100.00;99392.38;6156957;23;20039;-78
2021/12/26 02:36:32;;;;;;;36.33;19.70;;;;;;;-1.54;100.00;99390.75;6157545;23;20012;-78
2021/12/26 02:38:59;;;;;;;36.70;21.30;;;;;;;-1.51;100.00;99390.00;6157051;23;20009;-77
2021/12/26 02:41:25;;;;;;;35.80;20.45;;;;;;;-1.53;100.00;99386.88;6157529;23;20021;-78
2021/12/26 02:43:50;;;;;;;36.05;20.27;;;;;;;-1.56;100.00;99393.84;6156865;23;20021;-77
2021/12/26 02:46:16;;;;;;;37.20;21.00;;;;;;;-1.56;100.00;99387.63;6183488;23;20042;-79
2021/12/26 02:48:42;;;;;;;36.63;21.10;;;;;;;-1.60;100.00;99381.34;6157177;23;20028;-79
2021/12/26 02:51:09;;;;;;;34.95;20.15;;;;;;;-1.57;100.00;99396.94;6157172;23;20092;-77
2021/12/26 02:53:35;;;;;;;36.63;20.92;;;;;;;-1.60;100.00;99397.69;6157128;23;20376;-79
2021/12/26 02:56:02;;;;;;;34.33;19.83;;;;;;;-1.60;100.00;99403.13;6157134;23;20450;-79
2021/12/26 02:58:30;;;;;;;35.78;20.83;;;;;;;-1.59;100.00;99399.25;6157031;23;20037;-80
2021/12/26 03:01:06;;;;;;;34.88;20.50;;;;;;;-1.54;100.00;99404.38;6156645;23;20021;-80
2021/12/26 03:03:32;;;;;;;33.70;20.33;;;;;;;-1.61;100.00;99406.97;6156778;23;20024;-80
2021/12/26 03:06:08;;;;;;;33.95;19.17;;;;;;;-1.62;100.00;99394.56;6183398;23;20013;-80
2021/12/26 03:08:33;;;;;;;34.20;19.52;;;;;;;-1.62;100.00;99421.75;6183484;23;20054;-80
2021/12/26 03:10:59;;;;;;;33.50;20.13;;;;;;;-1.61;100.00;99417.84;6156899;23;20025;-80
2021/12/26 03:13:26;;;;;;;33.25;19.65;;;;;;;-1.62;100.00;99413.59;6157448;23;20009;-80
2021/12/26 03:15:52;;;;;;;35.10;19.60;;;;;;;-1.58;100.00;99428.03;6157282;23;20132;-80
2021/12/26 03:18:18;;;;;;;34.58;19.75;;;;;;;-1.62;100.00;99427.19;6156706;23;20056;-80
2021/12/26 03:20:47;;;;;;;30.75;19.13;;;;;;;-1.70;100.00;99422.81;6183569;23;20428;-80
2021/12/26 03:23:16;;;;;;;30.20;17.45;;;;;;;-1.72;100.00;99441.44;6182652;23;20016;-80
2021/12/26 03:25:45;;;;;;;35.53;20.15;;;;;;;-1.72;100.00;99444.16;6156913;23;20021;-80
2021/12/26 03:28:11;;;;;;;35.92;20.05;;;;;;;-1.69;100.00;99449.63;6156764;23;20445;-80
2021/12/26 03:30:38;;;;;;;35.28;20.05;;;;;;;-1.77;100.00;99452.63;6181922;23;20013;-80
2021/12/26 03:33:06;;;;;;;36.20;20.30;;;;;;;-1.89;100.00;99450.91;6131780;23;20080;-80
2021/12/26 03:35:32;;;;;;;34.30;19.27;;;;;;;-1.88;100.00;99457.91;6156789;23;20446;-80
2021/12/26 03:37:59;;;;;;;34.88;20.55;;;;;;;-1.92;100.00;99468.75;6181779;23;20363;-80
2021/12/26 03:40:44;;;;;;;35.15;20.05;;;;;;;-1.92;100.00;99468.75;6183254;23;20467;-80
2021/12/26 03:43:10;;;;;;;35.65;19.48;;;;;;;-1.92;100.00;99468.75;6156354;23;20025;-80
2021/12/26 03:45:36;;;;;;;34.15;19.40;;;;;;;-2.02;100.00;99458.50;6156860;23;20079;-80
2021/12/26 03:48:03;;;;;;;32.72;18.33;;;;;;;-1.99;100.00;99465.94;6156571;23;20187;-80
2021/12/26 03:50:30;;;;;;;35.47;19.55;;;;;;;-1.92;100.00;99485.06;6156690;23;20347;-80
2021/12/26 03:52:57;;;;;;;33.90;19.52;;;;;;;-1.94;100.00;99481.91;6156466;23;20411;-80
2021/12/26 03:55:26;;;;;;;34.13;19.77;;;;;;;-1.96;100.00;99478.78;6156717;23;20017;-80
2021/12/26 03:57:53;;;;;;;33.70;19.85;;;;;;;-1.93;100.00;99483.47;6156507;23;20052;-80
2021/12/26 04:00:21;;;;;;;34.50;20.60;;;;;;;-1.91;100.00;99483.91;6156141;23;20390;-80
2021/12/26 04:02:47;;;;;;;33.20;19.38;;;;;;;-1.89;100.00;99489.75;6156114;23;20099;-80
2021/12/26 04:05:14;;;;;;;32.08;18.30;;;;;;;-1.92;100.00;99479.63;6156212;23;20055;-80
2021/12/26 04:07:40;;;;;;;32.97;19.38;;;;;;;-1.94;100.00;99494.75;6156390;23;20029;-80
2021/12/26 04:10:06;;;;;;;33.33;19.67;;;;;;;-2.03;100.00;99494.22;6156473;23;20017;-80
2021/12/26 04:12:36;;;;;;;33.60;20.17;;;;;;;-2.04;100.00;99485.28;6183145;23;20000;-80
2021/12/26 04:15:08;;;;;;;32.25;19.50;;;;;;;-2.09;100.00;99488.28;6156255;23;20017;-80
2021/12/26 04:17:35;;;;;;;36.53;20.80;;;;;;;-2.12;100.00;99480.09;6181411;23;20087;-80
2021/12/26 04:20:01;;;;;;;36.30;21.17;;;;;;;-2.08;100.00;99483.66;6156113;23;20028;-80
2021/12/26 04:22:27;;;;;;;35.08;20.70;;;;;;;-2.02;100.00;99482.19;6156111;23;20449;-80
2021/12/26 04:24:53;;;;;;;35.58;21.05;;;;;;;-2.07;100.00;99493.38;6156566;23;20056;-80
2021/12/26 04:27:19;;;;;;;35.15;20.48;;;;;;;-2.10;100.00;99494.88;6181633;23;20024;-80
2021/12/26 04:29:44;;;;;;;36.35;21.42;;;;;;;-2.10;100.00;99503.03;6155559;23;20114;-80
2021/12/26 04:32:10;;;;;;;34.75;18.85;;;;;;;-2.12;100.00;99499.91;6131506;23;20073;-80
2021/12/26 04:34:35;;;;;;;33.35;19.88;;;;;;;-2.14;100.00;99509.59;6135239;23;20060;-78
2021/12/26 04:37:01;;;;;;;36.65;20.08;;;;;;;-2.19;100.00;99502.53;6159423;23;20443;-78
2021/12/26 04:39:27;;;;;;;39.08;21.35;;;;;;;-2.15;100.00;99503.34;6159449;23;20604;-78
2021/12/26 04:41:53;;;;;;;35.10;21.08;;;;;;;-2.15;100.00;99508.00;6159779;23;20036;-78
2021/12/26 04:44:48;;;;;;;37.72;20.80;;;;;;;-2.13;100.00;99506.47;6165465;23;20020;-78
2021/12/26 04:47:25;;;;;;;36.60;20.60;;;;;;;-2.15;100.00;99522.38;6196124;23;20071;-78
2021/12/26 04:49:51;;;;;;;36.20;21.42;;;;;;;-2.15;100.00;99518.88;6159807;23;20013;-78
2021/12/26 04:52:17;;;;;;;36.72;21.08;;;;;;;-2.18;100.00;99520.38;6159365;23;20008;-78
2021/12/26 04:54:42;;;;;;;36.33;20.27;;;;;;;-2.22;100.00;99524.97;6159379;23;20109;-78
2021/12/26 04:57:08;;;;;;;36.63;20.27;;;;;;;-2.25;100.00;99527.63;6159241;23;20024;-78
2021/12/26 04:59:33;;;;;;;39.03;21.17;;;;;;;-2.22;100.00;99533.09;6159607;23;20001;-78
2021/12/26 05:01:59;;;;;;;35.50;21.05;;;;;;;-2.18;100.00;99522.31;6159028;23;20039;-78
2021/12/26 05:04:25;;;;;;;36.85;20.67;;;;;;;-2.19;100.00;99529.69;6158379;23;20655;-78
2021/12/26 05:06:51;;;;;;;37.25;21.50;;;;;;;-2.26;100.00;99524.13;6159788;23;20017;-78
2021/12/26 05:09:16;;;;;;;36.65;21.67;;;;;;;-2.19;100.00;99529.69;6185327;23;20447;-78
2021/12/26 05:11:42;;;;;;;37.15;20.70;;;;;;;-2.26;100.00;99532.28;6186017;23;20418;-78
2021/12/26 05:14:08;;;;;;;39.60;22.23;;;;;;;-2.29;100.00;99538.44;6185882;23;20020;-78
2021/12/26 05:16:33;;;;;;;37.63;21.38;;;;;;;-2.31;100.00;99529.88;6135089;23;20083;-78
2021/12/26 05:18:59;;;;;;;37.47;22.33;;;;;;;-2.28;100.00;99540.00;6158582;23;20057;-79
2021/12/26 05:21:25;;;;;;;39.10;22.00;;;;;;;-2.34;100.00;99517.00;6158788;23;20024;-78
2021/12/26 05:23:51;;;;;;;37.42;21.30;;;;;;;-2.28;100.00;99539.22;6159853;23;20021;-79
2021/12/26 05:26:16;;;;;;;40.88;23.33;;;;;;;-2.32;100.00;99547.31;6185445;23;20104;-79
2021/12/26 05:28:42;;;;;;;40.05;22.42;;;;;;;-2.36;100.00;99551.91;6134747;23;20020;-78
2021/12/26 05:31:09;;;;;;;41.00;22.33;;;;;;;-2.36;100.00;99541.81;6159339;23;20013;-78
2021/12/26 05:33:40;;;;;;;39.70;22.13;;;;;;;-2.37;100.00;99551.13;6158982;23;20063;-78
2021/12/26 05:36:06;;;;;;;40.20;21.85;;;;;;;-2.35;100.00;99553.47;6158397;23;20071;-78
2021/12/26 05:38:35;;;;;;;41.53;22.67;;;;;;;-2.41;100.00;99535.91;6159294;23;20013;-79
2021/12/26 05:41:01;;;;;;;42.03;22.73;;;;;;;-2.32;100.00;99541.88;6135095;23;20020;-78
2021/12/26 05:43:27;;;;;;;40.63;22.38;;;;;;;-2.37;100.00;99540.25;6158975;23;20099;-78
2021/12/26 05:45:54;;;;;;;39.67;22.98;;;;;;;-2.39;100.00;99536.34;6157177;23;20450;-79
2021/12/26 05:48:22;;;;;;;37.75;20.70;;;;;;;-2.35;100.00;99537.19;6133319;23;20192;-79
2021/12/26 05:50:48;;;;;;;43.85;23.40;;;;;;;-2.30;100.00;99539.56;6132907;23;20443;-78
2021/12/26 05:53:45;;;;;;;39.20;19.73;;;;;;;-2.31;100.00;99540.75;6156769;23;20024;-79
2021/12/26 05:56:11;;;;;;;41.40;21.00;;;;;;;-2.30;100.00;99539.56;6157737;23;20013;-78
2021/12/26 05:58:37;;;;;;;38.42;22.02;;;;;;;-2.35;100.00;99537.19;6157104;23;20017;-78
2021/12/26 06:01:03;;;;;;;41.80;22.73;;;;;;;-2.30;100.00;99549.69;6157576;23;20064;-79
2021/12/26 06:03:29;;;;;;;41.10;22.42;;;;;;;-2.30;100.00;99546.97;6156576;23;20017;-79
2021/12/26 06:05:54;;;;;;;39.63;21.27;;;;;;;-2.37;100.00;99536.75;6157625;23;20092;-78
2021/12/26 06:08:32;;;;;;;38.00;22.35;;;;;;;-2.34;100.00;99552.31;6156932;23;20017;-79
2021/12/26 06:10:57;;;;;;;40.17;21.85;;;;;;;-2.31;100.00;99548.09;6133293;23;20439;-79
2021/12/26 06:13:23;;;;;;;45.90;22.88;;;;;;;-2.35;100.00;99548.06;6183553;23;20005;-79
2021/12/26 06:15:49;;;;;;;40.88;22.20;;;;;;;-2.37;100.00;99544.91;6133410;23;20009;-79
2021/12/26 06:18:14;;;;;;;36.60;21.52;;;;;;;-2.27;100.00;99547.03;6157478;23;20085;-79
2021/12/26 06:20:58;;;;;;;;;;;;;;;-2.29;100.00;99541.16;6184449;23;20028;-79
2021/12/26 06:23:53;;;;;;;;;;;;;;;-2.36;100.00;99547.25;6103852;23;19913;-79
2021/12/26 06:26:32;;;;;;;38.95;21.15;;;;;;;-2.33;100.00;99545.75;6137864;23;19919;-79
2021/12/26 06:29:00;;;;;;;40.45;20.52;;;;;;;-2.30;100.00;99545.00;6157253;23;20017;-79
2021/12/26 06:31:59;;;;;;;40.35;20.98;;;;;;;-2.39;100.00;99541.78;6116487;23;20036;-79
2021/12/26 06:35:01;;;;;;;40.28;20.77;;;;;;;-2.38;100.00;99560.41;6181139;23;20025;-79
2021/12/26 06:37:49;;;;;;;36.22;16.85;;;;;;;-2.40;100.00;99545.63;6155217;23;20049;-78
2021/12/26 06:40:34;;;;;;;43.08;22.70;;;;;;;-2.42;100.00;99553.34;6158137;23;20048;-78
2021/12/26 06:43:18;;;;;;;42.90;22.50;;;;;;;-2.50;100.00;99540.78;6180157;23;20067;-78
2021/12/26 06:46:18;;;;;;;41.63;22.33;;;;;;;-2.37;100.00;99561.19;6119110;23;20029;-78
2021/12/26 06:49:17;;;;;;;43.88;23.17;;;;;;;-2.40;100.00;99551.84;6157376;23;20659;-80
2021/12/26 06:51:45;;;;;;;42.60;21.88;;;;;;;-2.41;100.00;99554.91;6153252;23;20013;-80
2021/12/26 06:54:10;;;;;;;40.55;22.30;;;;;;;-2.34;100.00;99565.91;6179544;23;20060;-80
2021/12/26 06:56:36;;;;;;;40.10;23.13;;;;;;;-2.39;100.00;99566.22;6180487;23;20024;-80
2021/12/26 06:59:01;;;;;;;40.92;23.58;;;;;;;-2.34;100.00;99565.91;6179348;23;20383;-80
2021/12/26 07:01:28;;;;;;;45.17;23.15;;;;;;;-2.38;100.00;99570.47;6179492;23;20090;-81
2021/12/26 07:03:54;;;;;;;41.22;22.42;;;;;;;-2.37;100.00;99572.06;6151997;23;20503;-80
2021/12/26 07:06:23;;;;;;;42.50;22.08;;;;;;;-2.36;100.00;99576.34;6154771;23;20013;-81
2021/12/26 07:08:49;;;;;;;45.53;23.65;;;;;;;-2.35;100.00;99575.22;6154652;23;20009;-80
2021/12/26 07:11:16;;;;;;;45.05;23.45;;;;;;;-2.32;100.00;99584.56;6154322;23;20462;-80
2021/12/26 07:13:42;;;;;;;44.47;24.40;;;;;;;-2.31;100.00;99581.50;6154829;23;20013;-80
2021/12/26 07:16:08;;;;;;;41.95;23.98;;;;;;;-2.27;100.00;99574.19;6154584;23;20024;-80
2021/12/26 07:18:35;;;;;;;38.97;22.35;;;;;;;-2.24;100.00;99576.16;6129968;23;20025;-80
2021/12/26 07:21:01;;;;;;;42.10;23.23;;;;;;;-2.26;100.00;99578.44;6154954;23;20028;-80
2021/12/26 07:23:36;;;;;;;40.00;19.00;;;;;;;-2.28;100.00;99577.25;6155580;23;20037;-80
2021/12/26 07:26:09;;;;;;;44.23;24.00;;;;;;;-2.25;100.00;99585.47;6132809;23;20009;-80
2021/12/26 07:28:34;;;;;;;42.97;23.55;;;;;;;-2.26;100.00;99583.88;6130959;23;20068;-81
2021/12/26 07:31:11;;;;;;;42.72;23.75;;;;;;;-2.14;100.00;99589.13;6156348;23;20020;-80
2021/12/26 07:33:38;;;;;;;44.15;24.50;;;;;;;-2.13;100.00;99592.66;6181407;23;20071;-80
2021/12/26 07:36:04;;;;;;;43.55;22.85;;;;;;;-2.15;100.00;99595.75;6156633;23;20041;-80
2021/12/26 07:38:42;;;;;;;39.80;22.15;;;;;;;-2.14;100.00;99594.56;6159298;23;20013;-81
2021/12/26 07:41:08;;;;;;;43.20;23.60;;;;;;;-2.12;100.00;99600.44;6156569;23;20028;-80
2021/12/26 07:43:34;;;;;;;43.17;23.52;;;;;;;-2.18;100.00;99595.69;6156770;23;20096;-80
2021/12/26 07:46:18;;;;;;;42.88;24.40;;;;;;;-2.19;100.00;99605.75;6160615;23;20546;-80
2021/12/26 07:48:46;;;;;;;47.17;24.30;;;;;;;-2.17;100.00;99611.59;6156783;23;20017;-80
2021/12/26 07:51:31;;;;;;;42.03;24.77;;;;;;;-2.12;100.00;99613.25;6160911;23;20020;-80
2021/12/26 07:54:16;;;;;;;47.92;27.48;;;;;;;-2.04;100.00;99607.56;6182745;23;20048;-80
2021/12/26 07:57:01;;;;;;;52.75;30.13;;;;;;;-2.08;100.00;99595.84;6183204;23;20044;-80
2021/12/26 07:59:45;;;;;;;53.25;27.13;;;;;;;-1.99;100.00;99609.19;6182858;23;20087;-81
2021/12/26 08:02:29;;;;;;;50.20;27.80;;;;;;;-1.98;100.00;99616.97;6182821;23;20080;-81
2021/12/26 08:05:13;;;;;;;;;;;;;;;-1.94;100.00;99617.81;6183350;23;20359;-81
2021/12/26 08:08:08;;;;;;;;;;;;;;;-1.86;100.00;99626.09;6156390;23;19939;-81
2021/12/26 08:10:33;;;;;;;46.38;25.17;;;;;;;-1.80;100.00;99627.34;6183067;23;19919;-81
2021/12/26 08:12:59;;;;;;;43.50;24.45;;;;;;;-1.74;100.00;99628.63;6131873;23;20017;-81
2021/12/26 08:15:25;;;;;;;49.90;27.55;;;;;;;-1.69;100.00;99628.31;6156400;23;20021;-81
2021/12/26 08:17:50;;;;;;;44.65;24.52;;;;;;;-1.68;100.00;99616.28;6156722;23;20060;-81
2021/12/26 08:20:16;;;;;;;39.05;22.20;;;;;;;-1.71;100.00;99619.75;6182452;23;20339;-81
2021/12/26 08:22:42;;;;;;;43.10;24.67;;;;;;;-1.64;100.00;99625.28;6183306;23;20502;-81
2021/12/26 08:25:08;;;;;;;42.58;24.98;;;;;;;-1.65;100.00;99620.97;6155979;23;20013;-81
2021/12/26 08:27:34;;;;;;;42.95;23.55;;;;;;;-1.61;100.00;99613.66;6182863;23;20059;-81
2021/12/26 08:30:00;;;;;;;43.30;21.13;;;;;;;-1.66;100.00;99617.50;6182641;23;20048;-81
2021/12/26 08:32:26;;;;;;;42.03;25.08;;;;;;;-1.62;100.00;99623.78;6156526;23;20447;-81
2021/12/26 08:34:52;;;;;;;49.90;26.48;;;;;;;-1.65;100.00;99619.06;6156792;23;20079;-82
2021/12/26 08:37:18;;;;;;;46.38;25.02;;;;;;;-1.69;100.00;99625.59;6156445;23;20008;-81
2021/12/26 08:39:44;;;;;;;47.67;25.77;;;;;;;-1.69;100.00;99636.47;6182609;23;20080;-81
2021/12/26 08:42:13;;;;;;;47.97;27.23;;;;;;;-1.68;100.00;99635.31;6155890;23;20016;-81
2021/12/26 08:44:40;;;;;;;48.13;27.35;;;;;;;-1.63;100.00;99637.72;6156281;23;20016;-82
2021/12/26 08:47:07;;;;;;;47.67;25.60;;;;;;;-1.62;100.00;99636.59;6155930;23;20006;-81
2021/12/26 08:49:33;;;;;;;45.83;26.52;;;;;;;-1.59;100.00;99633.13;6182726;23;20028;-82
2021/12/26 08:51:59;;;;;;;48.03;26.50;;;;;;;-1.52;100.00;99633.25;6179978;23;20017;-81
2021/12/26 08:54:26;;;;;;;44.58;26.00;;;;;;;-1.52;100.00;99627.78;6154007;23;20009;-81
2021/12/26 08:56:53;;;;;;;45.42;25.75;;;;;;;-1.41;100.00;99623.28;6180715;23;20013;-82
2021/12/26 08:59:19;;;;;;;45.22;24.27;;;;;;;-1.43;100.00;99622.88;6180300;23;20017;-81
2021/12/26 09:01:46;;;;;;;44.78;25.40;;;;;;;-1.49;100.00;99632.50;6154668;23;20059;-81
2021/12/26 09:04:12;;;;;;;47.63;25.60;;;;;;;-1.53;100.00;99621.56;6180904;23;20023;-82
2021/12/26 09:06:38;;;;;;;49.90;28.17;;;;;;;-1.37;100.00;99628.81;6154478;23;20399;-82
2021/12/26 09:09:04;;;;;;;44.47;26.25;;;;;;;-1.37;100.00;99628.81;6180310;23;20017;-82
2021/12/26 09:11:30;;;;;;;47.33;25.98;;;;;;;-1.41;100.00;99626.00;6179011;23;20014;-81
2021/12/26 09:13:55;;;;;;;47.22;26.40;;;;;;;-1.37;100.00;99639.69;6179526;23;20088;-81
2021/12/26 09:16:21;;;;;;;47.97;25.65;;;;;;;-1.41;100.00;99628.72;6178475;23;20016;-82
2021/12/26 09:18:46;;;;;;;47.75;27.20;;;;;;;-1.31;100.00;99630.84;6154253;23;20321;-82
2021/12/26 09:21:12;;;;;;;48.50;27.08;;;;;;;-1.30;100.00;99634.34;6182857;23;20001;-81
2021/12/26 09:23:38;;;;;;;45.35;26.13;;;;;;;-1.30;100.00;99635.13;6181639;23;20574;-81
2021/12/26 09:26:03;;;;;;;48.42;26.73;;;;;;;-1.29;100.00;99636.69;6156007;23;20048;-81
2021/12/26 09:28:29;;;;;;;43.28;25.05;;;;;;;-1.30;100.00;99628.91;6182024;23;20020;-82
2021/12/26 09:30:55;;;;;;;47.70;26.70;;;;;;;-1.35;100.00;99632.72;6183096;23;20075;-82
2021/12/26 09:33:21;;;;;;;48.03;27.58;;;;;;;-1.28;100.00;99634.75;6181990;23;20025;-82
2021/12/26 09:35:51;;;;;;;50.97;27.83;;;;;;;-1.29;100.00;99623.06;6183079;23;20032;-82
2021/12/26 09:38:17;;;;;;;49.13;27.10;;;;;;;-1.26;100.00;99618.84;6182297;23;20021;-82
2021/12/26 09:40:43;;;;;;;53.25;28.70;;;;;;;-1.22;100.00;99617.75;6182801;23;20013;-82
2021/12/26 09:43:09;;;;;;;47.05;27.73;;;;;;;-1.16;100.00;99613.53;6155402;23;20092;-82
2021/12/26 09:45:34;;;;;;;47.80;27.05;;;;;;;-1.15;100.00;99612.41;6181682;23;20036;-83
2021/12/26 09:48:00;;;;;;;46.78;25.80;;;;;;;-1.22;100.00;99606.88;6181320;23;20009;-82
2021/12/26 09:50:26;;;;;;;47.58;25.77;;;;;;;-1.25;100.00;99604.09;6155123;23;20019;-82
2021/12/26 09:52:54;;;;;;;48.35;26.33;;;;;;;-1.36;100.00;99598.50;6181463;23;20138;-82
2021/12/26 09:55:21;;;;;;;53.25;30.17;;;;;;;-1.28;100.00;99616.47;6155659;23;20080;-82
2021/12/26 09:57:47;;;;;;;52.03;28.42;;;;;;;-1.26;100.00;99608.75;6182473;23;20051;-81
2021/12/26 10:00:35;;;;;;;50.67;28.75;;;;;;;-1.14;100.00;99616.69;6181802;23;20012;-85
2021/12/26 10:03:11;;;;;;;48.45;27.60;;;;;;;-1.10;100.00;99617.53;6169723;23;20021;-81
2021/12/26 10:06:01;;;;;;;51.35;27.73;;;;;;;-1.08;100.00;99625.31;6182560;23;20021;-80
2021/12/26 10:08:28;;;;;;;51.45;28.35;;;;;;;-1.05;100.00;99625.34;6181863;23;20009;-78
2021/12/26 10:11:09;;;;;;;50.28;28.05;;;;;;;-1.08;100.00;99614.41;6181469;23;20040;-80
2021/12/26 10:13:47;;;;;;;48.92;28.90;;;;;;;-1.06;100.00;99623.78;6182338;23;20013;-81
2021/12/26 10:16:15;;;;;;;50.00;29.45;;;;;;;-1.01;100.00;99618.00;6181461;23;20040;-81
2021/12/26 10:18:42;;;;;;;50.20;29.20;;;;;;;-1.01;100.00;99609.09;6181949;23;20048;-81
2021/12/26 10:21:27;;;;;;;51.58;28.80;;;;;;;-0.95;100.00;99632.88;6156284;23;20009;-80
2021/12/26 10:23:55;;;;;;;51.97;29.27;;;;;;;-0.91;100.00;99623.97;6182414;23;20438;-80
2021/12/26 10:26:23;;;;;;;47.70;26.40;;;;;;;-0.87;100.00;99628.31;6155784;23;20009;-80
2021/12/26 10:29:03;;;;;;;46.28;25.75;;;;;;;-0.87;100.00;99627.50;6179428;23;20041;-80
2021/12/26 10:31:29;;;;;;;47.08;27.55;;;;;;;-0.86;100.00;99626.38;6179672;23;20341;-80
2021/12/26 10:33:55;;;;;;;53.17;29.90;;;;;;;-0.94;100.00;99620.06;6153682;23;20013;-80
2021/12/26 10:36:20;;;;;;;53.88;29.90;;;;;;;-0.89;100.00;99622.47;6180768;23;20013;-80
2021/12/26 10:39:06;;;;;;;48.85;26.90;;;;;;;-0.97;100.00;99616.13;6131600;23;20020;-80
2021/12/26 10:41:32;;;;;;;54.25;29.17;;;;;;;-0.96;100.00;99627.78;6156281;23;20016;-80
2021/12/26 10:43:58;;;;;;;50.80;27.45;;;;;;;-1.03;100.00;99616.81;6183167;23;20461;-80
2021/12/26 10:46:23;;;;;;;47.30;27.63;;;;;;;-0.94;100.00;99636.38;6183479;23;20091;-80
2021/12/26 10:48:49;;;;;;;53.95;29.50;;;;;;;-0.97;100.00;99637.91;6183709;23;20032;-80
2021/12/26 10:51:34;;;;;;;49.67;29.13;;;;;;;-0.92;100.00;99639.50;6157378;23;20009;-80
2021/12/26 10:54:17;;;;;;;47.72;27.23;;;;;;;-0.85;100.00;99627.94;6157121;23;20023;-80
2021/12/26 10:57:02;;;;;;;48.60;27.20;;;;;;;-0.81;100.00;99634.22;6157539;23;20017;-80
2021/12/26 10:59:28;;;;;;;48.42;27.30;;;;;;;-0.71;100.00;99639.00;6183409;23;20013;-80
2021/12/26 11:01:56;;;;;;;46.80;27.52;;;;;;;-0.69;100.00;99642.94;6183505;23;20447;-80
2021/12/26 11:04:23;;;;;;;49.95;25.63;;;;;;;-0.63;100.00;99640.66;6182872;23;20021;-80
2021/12/26 11:07:08;;;;;;;44.85;26.98;;;;;;;-0.66;100.00;99633.22;6183787;23;20451;-81
2021/12/26 11:09:35;;;;;;;49.15;28.02;;;;;;;-0.63;100.00;99629.75;6183605;23;20020;-81
2021/12/26 11:12:06;;;;;;;46.25;27.42;;;;;;;-0.62;100.00;99623.16;6183378;23;20084;-80
2021/12/26 11:14:33;;;;;;;46.00;27.40;;;;;;;-0.62;100.00;99614.97;6183199;23;20013;-80
2021/12/26 11:16:59;;;;;;;46.95;26.40;;;;;;;-0.54;100.00;99619.34;6157680;23;20084;-80
2021/12/26 11:19:44;;;;;;;43.85;26.25;;;;;;;-0.49;100.00;99617.09;6156755;23;20055;-80
2021/12/26 11:22:10;;;;;;;49.60;26.55;;;;;;;-0.50;100.00;99606.56;6183194;23;20028;-81
2021/12/26 11:24:37;;;;;;;51.65;28.13;;;;;;;-0.46;100.00;99601.94;6157101;23;20013;-80
2021/12/26 11:27:03;;;;;;;50.25;28.38;;;;;;;-0.57;100.00;99595.59;6183482;23;20478;-80
2021/12/26 11:29:28;;;;;;;51.05;28.38;;;;;;;-0.49;100.00;99597.22;6156356;23;20351;-81